sensor_id;sensor_type;location;lat;lon;timestamp;pressure;altitude;pressure_sealevel;temperature
12854;BMP180;6495;51.808;7.478;2023-07-30T00:02:25;100468.00;;;20.00
12854;BMP180;6495;51.808;7.478;2023-07-30T00:04:53;100475.00;;;19.90
12854;BMP180;6495;51.808;7.478;2023-07-30T00:07:21;100469.00;;;19.90
12854;BMP180;6495;51.808;7.478;2023-07-30T00:09:49;100473.00;;;19.90
12854;BMP180;6495;51.808;7.478;2023-07-30T00:12:18;100469.00;;;19.90
12854;BMP180;6495;51.808;7.478;2023-07-30T00:14:46;100470.00;;;19.90
12854;BMP180;6495;51.808;7.478;2023-07-30T00:17:15;100478.00;;;19.90
12854;BMP180;6495;51.808;7.478;2023-07-30T00:19:43;100478.00;;;19.80
12854;BMP180;6495;51.808;7.478;2023-07-30T00:22:11;100477.00;;;19.80
12854;BMP180;6495;51.808;7.478;2023-07-30T00:24:39;100465.00;;;19.70
12854;BMP180;6495;51.808;7.478;2023-07-30T00:27:07;100467.00;;;19.70
12854;BMP180;6495;51.808;7.478;2023-07-30T00:29:38;100474.00;;;19.70
12854;BMP180;6495;51.808;7.478;2023-07-30T00:32:07;100460.00;;;19.70
12854;BMP180;6495;51.808;7.478;2023-07-30T00:34:37;100463.00;;;19.60
12854;BMP180;6495;51.808;7.478;2023-07-30T00:37:05;100465.00;;;19.60
12854;BMP180;6495;51.808;7.478;2023-07-30T00:39:34;100466.00;;;19.60
12854;BMP180;6495;51.808;7.478;2023-07-30T00:42:02;100464.00;;;19.60
12854;BMP180;6495;51.808;7.478;2023-07-30T00:44:31;100470.00;;;19.60
12854;BMP180;6495;51.808;7.478;2023-07-30T00:46:59;100460.00;;;19.50
12854;BMP180;6495;51.808;7.478;2023-07-30T00:49:27;100464.00;;;19.50
12854;BMP180;6495;51.808;7.478;2023-07-30T00:51:57;100461.00;;;19.50
12854;BMP180;6495;51.808;7.478;2023-07-30T00:54:25;100466.00;;;19.50
12854;BMP180;6495;51.808;7.478;2023-07-30T00:56:53;100471.00;;;19.40
12854;BMP180;6495;51.808;7.478;2023-07-30T00:59:22;100473.00;;;19.40
12854;BMP180;6495;51.808;7.478;2023-07-30T01:01:51;100470.00;;;19.40
12854;BMP180;6495;51.808;7.478;2023-07-30T01:04:20;100459.00;;;19.30
12854;BMP180;6495;51.808;7.478;2023-07-30T01:06:48;100465.00;;;19.30
12854;BMP180;6495;51.808;7.478;2023-07-30T01:09:18;100480.00;;;19.20
12854;BMP180;6495;51.808;7.478;2023-07-30T01:11:46;100480.00;;;19.20
12854;BMP180;6495;51.808;7.478;2023-07-30T01:14:16;100486.00;;;19.20
12854;BMP180;6495;51.808;7.478;2023-07-30T01:16:46;100478.00;;;19.20
12854;BMP180;6495;51.808;7.478;2023-07-30T01:19:14;100480.00;;;19.10
12854;BMP180;6495;51.808;7.478;2023-07-30T01:21:43;100482.00;;;19.10
12854;BMP180;6495;51.808;7.478;2023-07-30T01:24:12;100476.00;;;19.00
12854;BMP180;6495;51.808;7.478;2023-07-30T01:26:43;100487.00;;;19.00
12854;BMP180;6495;51.808;7.478;2023-07-30T01:29:20;100493.00;;;19.00
12854;BMP180;6495;51.808;7.478;2023-07-30T01:31:56;100493.00;;;18.90
12854;BMP180;6495;51.808;7.478;2023-07-30T01:34:27;100492.00;;;18.90
12854;BMP180;6495;51.808;7.478;2023-07-30T01:36:58;100494.00;;;18.90
12854;BMP180;6495;51.808;7.478;2023-07-30T01:39:27;100492.00;;;18.90
12854;BMP180;6495;51.808;7.478;2023-07-30T01:41:56;100503.00;;;18.90
12854;BMP180;6495;51.808;7.478;2023-07-30T01:44:25;100502.00;;;18.80
12854;BMP180;6495;51.808;7.478;2023-07-30T01:46:53;100507.00;;;18.80
12854;BMP180;6495;51.808;7.478;2023-07-30T01:49:21;100509.00;;;18.80
12854;BMP180;6495;51.808;7.478;2023-07-30T01:51:49;100516.00;;;18.80
12854;BMP180;6495;51.808;7.478;2023-07-30T01:54:19;100519.00;;;18.80
12854;BMP180;6495;51.808;7.478;2023-07-30T01:56:47;100515.00;;;18.80
12854;BMP180;6495;51.808;7.478;2023-07-30T01:59:16;100520.00;;;18.80
12854;BMP180;6495;51.808;7.478;2023-07-30T02:01:44;100514.00;;;18.70
12854;BMP180;6495;51.808;7.478;2023-07-30T02:04:12;100520.00;;;18.70
12854;BMP180;6495;51.808;7.478;2023-07-30T02:06:40;100517.00;;;18.70
12854;BMP180;6495;51.808;7.478;2023-07-30T02:09:08;100520.00;;;18.70
12854;BMP180;6495;51.808;7.478;2023-07-30T02:11:38;100516.00;;;18.60
12854;BMP180;6495;51.808;7.478;2023-07-30T02:14:06;100520.00;;;18.60
12854;BMP180;6495;51.808;7.478;2023-07-30T02:16:35;100523.00;;;18.50
12854;BMP180;6495;51.808;7.478;2023-07-30T02:19:04;100522.00;;;18.50
12854;BMP180;6495;51.808;7.478;2023-07-30T02:21:32;100520.00;;;18.40
12854;BMP180;6495;51.808;7.478;2023-07-30T02:24:04;100511.00;;;18.40
12854;BMP180;6495;51.808;7.478;2023-07-30T02:26:38;100514.00;;;18.40
12854;BMP180;6495;51.808;7.478;2023-07-30T02:29:07;100513.00;;;18.40
12854;BMP180;6495;51.808;7.478;2023-07-30T02:31:35;100509.00;;;18.30
12854;BMP180;6495;51.808;7.478;2023-07-30T02:34:04;100513.00;;;18.30
12854;BMP180;6495;51.808;7.478;2023-07-30T02:36:34;100510.00;;;18.30
12854;BMP180;6495;51.808;7.478;2023-07-30T02:39:02;100515.00;;;18.30
12854;BMP180;6495;51.808;7.478;2023-07-30T02:41:30;100511.00;;;18.20
12854;BMP180;6495;51.808;7.478;2023-07-30T02:44:00;100521.00;;;18.20
12854;BMP180;6495;51.808;7.478;2023-07-30T02:46:29;100516.00;;;18.20
12854;BMP180;6495;51.808;7.478;2023-07-30T02:48:58;100527.00;;;18.10
12854;BMP180;6495;51.808;7.478;2023-07-30T02:51:26;100522.00;;;18.10
12854;BMP180;6495;51.808;7.478;2023-07-30T02:53:58;100523.00;;;18.10
12854;BMP180;6495;51.808;7.478;2023-07-30T02:56:27;100517.00;;;18.00
12854;BMP180;6495;51.808;7.478;2023-07-30T02:58:55;100520.00;;;17.90
12854;BMP180;6495;51.808;7.478;2023-07-30T03:01:24;100523.00;;;17.90
12854;BMP180;6495;51.808;7.478;2023-07-30T03:03:53;100522.00;;;17.80
12854;BMP180;6495;51.808;7.478;2023-07-30T03:06:21;100523.00;;;17.80
12854;BMP180;6495;51.808;7.478;2023-07-30T03:08:49;100515.00;;;17.80
12854;BMP180;6495;51.808;7.478;2023-07-30T03:11:18;100520.00;;;17.80
12854;BMP180;6495;51.808;7.478;2023-07-30T03:13:46;100522.00;;;17.80
12854;BMP180;6495;51.808;7.478;2023-07-30T03:16:14;100522.00;;;17.80
12854;BMP180;6495;51.808;7.478;2023-07-30T03:18:44;100523.00;;;17.70
12854;BMP180;6495;51.808;7.478;2023-07-30T03:21:12;100521.00;;;17.70
12854;BMP180;6495;51.808;7.478;2023-07-30T03:23:41;100515.00;;;17.70
12854;BMP180;6495;51.808;7.478;2023-07-30T03:26:11;100511.00;;;17.70
12854;BMP180;6495;51.808;7.478;2023-07-30T03:28:40;100521.00;;;17.70
12854;BMP180;6495;51.808;7.478;2023-07-30T03:31:08;100508.00;;;17.70
12854;BMP180;6495;51.808;7.478;2023-07-30T03:33:37;100513.00;;;17.70
12854;BMP180;6495;51.808;7.478;2023-07-30T03:36:07;100512.00;;;17.60
12854;BMP180;6495;51.808;7.478;2023-07-30T03:38:36;100512.00;;;17.60
12854;BMP180;6495;51.808;7.478;2023-07-30T03:41:05;100523.00;;;17.60
12854;BMP180;6495;51.808;7.478;2023-07-30T03:43:34;100516.00;;;17.60
12854;BMP180;6495;51.808;7.478;2023-07-30T03:46:02;100517.00;;;17.50
12854;BMP180;6495;51.808;7.478;2023-07-30T03:48:30;100519.00;;;17.40
12854;BMP180;6495;51.808;7.478;2023-07-30T03:50:58;100521.00;;;17.30
12854;BMP180;6495;51.808;7.478;2023-07-30T03:53:28;100518.00;;;17.30
12854;BMP180;6495;51.808;7.478;2023-07-30T03:55:56;100508.00;;;17.30
12854;BMP180;6495;51.808;7.478;2023-07-30T03:58:26;100516.00;;;17.20
12854;BMP180;6495;51.808;7.478;2023-07-30T04:00:54;100521.00;;;17.20
12854;BMP180;6495;51.808;7.478;2023-07-30T04:03:22;100513.00;;;17.10
12854;BMP180;6495;51.808;7.478;2023-07-30T04:05:50;100523.00;;;17.10
12854;BMP180;6495;51.808;7.478;2023-07-30T04:08:19;100525.00;;;17.10
12854;BMP180;6495;51.808;7.478;2023-07-30T04:10:49;100523.00;;;17.10
12854;BMP180;6495;51.808;7.478;2023-07-30T04:13:17;100528.00;;;17.10
12854;BMP180;6495;51.808;7.478;2023-07-30T04:15:47;100530.00;;;17.10
12854;BMP180;6495;51.808;7.478;2023-07-30T04:18:16;100529.00;;;17.10
12854;BMP180;6495;51.808;7.478;2023-07-30T04:20:44;100530.00;;;17.20
12854;BMP180;6495;51.808;7.478;2023-07-30T04:23:12;100532.00;;;17.20
12854;BMP180;6495;51.808;7.478;2023-07-30T04:25:40;100528.00;;;17.10
12854;BMP180;6495;51.808;7.478;2023-07-30T04:28:10;100533.00;;;17.10
12854;BMP180;6495;51.808;7.478;2023-07-30T04:30:38;100534.00;;;17.00
12854;BMP180;6495;51.808;7.478;2023-07-30T04:33:07;100536.00;;;17.00
12854;BMP180;6495;51.808;7.478;2023-07-30T04:35:37;100534.00;;;17.00
12854;BMP180;6495;51.808;7.478;2023-07-30T04:38:06;100535.00;;;17.00
12854;BMP180;6495;51.808;7.478;2023-07-30T04:40:34;100539.00;;;17.00
12854;BMP180;6495;51.808;7.478;2023-07-30T04:43:02;100541.00;;;17.00
12854;BMP180;6495;51.808;7.478;2023-07-30T04:45:32;100543.00;;;17.00
12854;BMP180;6495;51.808;7.478;2023-07-30T04:48:01;100548.00;;;17.00
12854;BMP180;6495;51.808;7.478;2023-07-30T04:50:29;100542.00;;;16.90
12854;BMP180;6495;51.808;7.478;2023-07-30T04:52:58;100547.00;;;16.90
12854;BMP180;6495;51.808;7.478;2023-07-30T04:55:26;100545.00;;;16.90
12854;BMP180;6495;51.808;7.478;2023-07-30T04:57:56;100546.00;;;16.90
12854;BMP180;6495;51.808;7.478;2023-07-30T05:00:24;100544.00;;;16.90
12854;BMP180;6495;51.808;7.478;2023-07-30T05:02:54;100544.00;;;16.90
12854;BMP180;6495;51.808;7.478;2023-07-30T05:05:22;100544.00;;;16.90
12854;BMP180;6495;51.808;7.478;2023-07-30T05:07:50;100547.00;;;16.90
12854;BMP180;6495;51.808;7.478;2023-07-30T05:10:18;100541.00;;;17.00
12854;BMP180;6495;51.808;7.478;2023-07-30T05:12:47;100547.00;;;17.00
12854;BMP180;6495;51.808;7.478;2023-07-30T05:15:15;100536.00;;;17.00
12854;BMP180;6495;51.808;7.478;2023-07-30T05:17:43;100538.00;;;17.00
12854;BMP180;6495;51.808;7.478;2023-07-30T05:20:13;100539.00;;;17.10
12854;BMP180;6495;51.808;7.478;2023-07-30T05:22:41;100557.00;;;17.10
12854;BMP180;6495;51.808;7.478;2023-07-30T05:25:09;100546.00;;;17.10
12854;BMP180;6495;51.808;7.478;2023-07-30T05:27:38;100546.00;;;17.10
12854;BMP180;6495;51.808;7.478;2023-07-30T05:30:07;100544.00;;;17.10
12854;BMP180;6495;51.808;7.478;2023-07-30T05:32:36;100544.00;;;17.10
12854;BMP180;6495;51.808;7.478;2023-07-30T05:35:05;100555.00;;;17.20
12854;BMP180;6495;51.808;7.478;2023-07-30T05:37:35;100545.00;;;17.20
12854;BMP180;6495;51.808;7.478;2023-07-30T05:40:05;100549.00;;;17.20
12854;BMP180;6495;51.808;7.478;2023-07-30T05:42:33;100564.00;;;17.10
12854;BMP180;6495;51.808;7.478;2023-07-30T05:45:02;100558.00;;;17.10
12854;BMP180;6495;51.808;7.478;2023-07-30T05:47:30;100568.00;;;17.20
12854;BMP180;6495;51.808;7.478;2023-07-30T05:49:58;100564.00;;;17.20
12854;BMP180;6495;51.808;7.478;2023-07-30T05:52:27;100562.00;;;17.20
12854;BMP180;6495;51.808;7.478;2023-07-30T05:54:56;100554.00;;;17.20
12854;BMP180;6495;51.808;7.478;2023-07-30T05:57:24;100566.00;;;17.20
12854;BMP180;6495;51.808;7.478;2023-07-30T05:59:53;100567.00;;;17.20
12854;BMP180;6495;51.808;7.478;2023-07-30T06:02:21;100558.00;;;17.20
12854;BMP180;6495;51.808;7.478;2023-07-30T06:04:49;100566.00;;;17.20
12854;BMP180;6495;51.808;7.478;2023-07-30T06:07:17;100575.00;;;17.10
12854;BMP180;6495;51.808;7.478;2023-07-30T06:09:46;100576.00;;;17.20
12854;BMP180;6495;51.808;7.478;2023-07-30T06:12:15;100572.00;;;17.10
12854;BMP180;6495;51.808;7.478;2023-07-30T06:14:43;100565.00;;;17.10
12854;BMP180;6495;51.808;7.478;2023-07-30T06:17:12;100572.00;;;17.10
12854;BMP180;6495;51.808;7.478;2023-07-30T06:19:40;100578.00;;;17.10
12854;BMP180;6495;51.808;7.478;2023-07-30T06:22:08;100579.00;;;17.20
12854;BMP180;6495;51.808;7.478;2023-07-30T06:24:37;100589.00;;;17.20
12854;BMP180;6495;51.808;7.478;2023-07-30T06:27:05;100582.00;;;17.20
12854;BMP180;6495;51.808;7.478;2023-07-30T06:29:38;100589.00;;;17.20
12854;BMP180;6495;51.808;7.478;2023-07-30T06:32:07;100596.00;;;17.20
12854;BMP180;6495;51.808;7.478;2023-07-30T06:34:35;100594.00;;;17.20
12854;BMP180;6495;51.808;7.478;2023-07-30T06:37:04;100592.00;;;17.20
12854;BMP180;6495;51.808;7.478;2023-07-30T06:39:32;100598.00;;;17.20
12854;BMP180;6495;51.808;7.478;2023-07-30T06:42:00;100600.00;;;17.20
12854;BMP180;6495;51.808;7.478;2023-07-30T06:44:28;100604.00;;;17.30
12854;BMP180;6495;51.808;7.478;2023-07-30T06:46:58;100595.00;;;17.20
12854;BMP180;6495;51.808;7.478;2023-07-30T06:49:26;100601.00;;;17.30
12854;BMP180;6495;51.808;7.478;2023-07-30T06:51:55;100604.00;;;17.30
12854;BMP180;6495;51.808;7.478;2023-07-30T06:54:23;100595.00;;;17.30
12854;BMP180;6495;51.808;7.478;2023-07-30T06:56:51;100602.00;;;17.30
12854;BMP180;6495;51.808;7.478;2023-07-30T06:59:19;100600.00;;;17.30
12854;BMP180;6495;51.808;7.478;2023-07-30T07:01:48;100601.00;;;17.30
12854;BMP180;6495;51.808;7.478;2023-07-30T07:04:18;100595.00;;;17.40
12854;BMP180;6495;51.808;7.478;2023-07-30T07:06:46;100599.00;;;17.40
12854;BMP180;6495;51.808;7.478;2023-07-30T07:09:15;100591.00;;;17.40
12854;BMP180;6495;51.808;7.478;2023-07-30T07:11:43;100591.00;;;17.50
12854;BMP180;6495;51.808;7.478;2023-07-30T07:14:11;100586.00;;;17.50
12854;BMP180;6495;51.808;7.478;2023-07-30T07:16:39;100583.00;;;17.60
12854;BMP180;6495;51.808;7.478;2023-07-30T07:19:08;100589.00;;;17.60
12854;BMP180;6495;51.808;7.478;2023-07-30T07:21:37;100586.00;;;17.60
12854;BMP180;6495;51.808;7.478;2023-07-30T07:24:06;100594.00;;;17.70
12854;BMP180;6495;51.808;7.478;2023-07-30T07:26:35;100595.00;;;17.70
12854;BMP180;6495;51.808;7.478;2023-07-30T07:29:03;100598.00;;;17.80
12854;BMP180;6495;51.808;7.478;2023-07-30T07:31:32;100607.00;;;17.80
12854;BMP180;6495;51.808;7.478;2023-07-30T07:34:02;100611.00;;;17.90
12854;BMP180;6495;51.808;7.478;2023-07-30T07:36:30;100610.00;;;17.90
12854;BMP180;6495;51.808;7.478;2023-07-30T07:39:00;100613.00;;;17.90
12854;BMP180;6495;51.808;7.478;2023-07-30T07:41:28;100621.00;;;17.90
12854;BMP180;6495;51.808;7.478;2023-07-30T07:43:56;100619.00;;;17.90
12854;BMP180;6495;51.808;7.478;2023-07-30T07:46:24;100619.00;;;18.00
12854;BMP180;6495;51.808;7.478;2023-07-30T07:48:54;100614.00;;;18.00
12854;BMP180;6495;51.808;7.478;2023-07-30T07:51:22;100614.00;;;18.00
12854;BMP180;6495;51.808;7.478;2023-07-30T07:53:51;100615.00;;;18.00
12854;BMP180;6495;51.808;7.478;2023-07-30T07:56:20;100625.00;;;18.10
12854;BMP180;6495;51.808;7.478;2023-07-30T07:58:48;100623.00;;;18.10
12854;BMP180;6495;51.808;7.478;2023-07-30T08:01:17;100631.00;;;18.10
12854;BMP180;6495;51.808;7.478;2023-07-30T08:03:45;100621.00;;;18.10
12854;BMP180;6495;51.808;7.478;2023-07-30T08:06:13;100631.00;;;18.10
12854;BMP180;6495;51.808;7.478;2023-07-30T08:08:42;100632.00;;;18.10
12854;BMP180;6495;51.808;7.478;2023-07-30T08:11:10;100639.00;;;18.10
12854;BMP180;6495;51.808;7.478;2023-07-30T08:13:39;100641.00;;;18.10
12854;BMP180;6495;51.808;7.478;2023-07-30T08:16:08;100630.00;;;18.10
12854;BMP180;6495;51.808;7.478;2023-07-30T08:18:36;100622.00;;;18.20
12854;BMP180;6495;51.808;7.478;2023-07-30T08:21:04;100622.00;;;18.20
12854;BMP180;6495;51.808;7.478;2023-07-30T08:23:32;100632.00;;;18.30
12854;BMP180;6495;51.808;7.478;2023-07-30T08:26:01;100630.00;;;18.40
12854;BMP180;6495;51.808;7.478;2023-07-30T08:28:29;100629.00;;;18.50
12854;BMP180;6495;51.808;7.478;2023-07-30T08:31:01;100639.00;;;18.50
12854;BMP180;6495;51.808;7.478;2023-07-30T08:33:30;100630.00;;;18.60
12854;BMP180;6495;51.808;7.478;2023-07-30T08:35:59;100628.00;;;18.60
12854;BMP180;6495;51.808;7.478;2023-07-30T08:38:28;100630.00;;;18.70
12854;BMP180;6495;51.808;7.478;2023-07-30T08:40:57;100632.00;;;18.70
12854;BMP180;6495;51.808;7.478;2023-07-30T08:43:25;100626.00;;;18.70
12854;BMP180;6495;51.808;7.478;2023-07-30T08:45:54;100624.00;;;18.70
12854;BMP180;6495;51.808;7.478;2023-07-30T08:48:25;100630.00;;;18.80
12854;BMP180;6495;51.808;7.478;2023-07-30T08:50:56;100628.00;;;18.80
12854;BMP180;6495;51.808;7.478;2023-07-30T08:53:26;100613.00;;;18.80
12854;BMP180;6495;51.808;7.478;2023-07-30T08:55:55;100619.00;;;18.80
12854;BMP180;6495;51.808;7.478;2023-07-30T08:58:26;100621.00;;;18.80
12854;BMP180;6495;51.808;7.478;2023-07-30T09:00:56;100623.00;;;18.90
12854;BMP180;6495;51.808;7.478;2023-07-30T09:03:28;100624.00;;;19.00
12854;BMP180;6495;51.808;7.478;2023-07-30T09:05:57;100624.00;;;19.10
12854;BMP180;6495;51.808;7.478;2023-07-30T09:08:25;100637.00;;;19.20
12854;BMP180;6495;51.808;7.478;2023-07-30T09:10:53;100633.00;;;19.20
12854;BMP180;6495;51.808;7.478;2023-07-30T09:13:22;100640.00;;;19.30
12854;BMP180;6495;51.808;7.478;2023-07-30T09:15:50;100646.00;;;19.30
12854;BMP180;6495;51.808;7.478;2023-07-30T09:18:19;100645.00;;;19.30
12854;BMP180;6495;51.808;7.478;2023-07-30T09:20:49;100653.00;;;19.30
12854;BMP180;6495;51.808;7.478;2023-07-30T09:23:17;100655.00;;;19.40
12854;BMP180;6495;51.808;7.478;2023-07-30T09:25:48;100655.00;;;19.40
12854;BMP180;6495;51.808;7.478;2023-07-30T09:28:18;100660.00;;;19.50
12854;BMP180;6495;51.808;7.478;2023-07-30T09:30:49;100659.00;;;19.60
12854;BMP180;6495;51.808;7.478;2023-07-30T09:33:19;100654.00;;;19.70
12854;BMP180;6495;51.808;7.478;2023-07-30T09:35:50;100661.00;;;19.70
12854;BMP180;6495;51.808;7.478;2023-07-30T09:38:20;100670.00;;;19.70
12854;BMP180;6495;51.808;7.478;2023-07-30T09:40:49;100672.00;;;19.80
12854;BMP180;6495;51.808;7.478;2023-07-30T09:43:18;100670.00;;;19.90
12854;BMP180;6495;51.808;7.478;2023-07-30T09:45:46;100673.00;;;20.00
12854;BMP180;6495;51.808;7.478;2023-07-30T09:48:15;100668.00;;;20.10
12854;BMP180;6495;51.808;7.478;2023-07-30T09:50:44;100666.00;;;20.10
12854;BMP180;6495;51.808;7.478;2023-07-30T09:53:16;100671.00;;;20.20
12854;BMP180;6495;51.808;7.478;2023-07-30T09:55:44;100680.00;;;20.20
12854;BMP180;6495;51.808;7.478;2023-07-30T09:58:13;100682.00;;;20.30
12854;BMP180;6495;51.808;7.478;2023-07-30T10:00:41;100676.00;;;20.30
12854;BMP180;6495;51.808;7.478;2023-07-30T10:03:13;100670.00;;;20.40
12854;BMP180;6495;51.808;7.478;2023-07-30T10:05:46;100664.00;;;20.50
12854;BMP180;6495;51.808;7.478;2023-07-30T10:08:23;100656.00;;;20.60
12854;BMP180;6495;51.808;7.478;2023-07-30T10:10:54;100659.00;;;20.90
12854;BMP180;6495;51.808;7.478;2023-07-30T10:13:23;100651.00;;;20.90
12854;BMP180;6495;51.808;7.478;2023-07-30T10:15:51;100665.00;;;21.00
12854;BMP180;6495;51.808;7.478;2023-07-30T10:18:20;100657.00;;;21.00
12854;BMP180;6495;51.808;7.478;2023-07-30T10:20:53;100660.00;;;21.10
12854;BMP180;6495;51.808;7.478;2023-07-30T10:23:29;100661.00;;;21.10
12854;BMP180;6495;51.808;7.478;2023-07-30T10:26:09;100662.00;;;21.10
12854;BMP180;6495;51.808;7.478;2023-07-30T10:28:38;100658.00;;;21.10
12854;BMP180;6495;51.808;7.478;2023-07-30T10:31:10;100660.00;;;21.10
12854;BMP180;6495;51.808;7.478;2023-07-30T10:33:46;100658.00;;;21.20
12854;BMP180;6495;51.808;7.478;2023-07-30T10:36:17;100658.00;;;21.20
12854;BMP180;6495;51.808;7.478;2023-07-30T10:38:46;100670.00;;;21.30
12854;BMP180;6495;51.808;7.478;2023-07-30T10:41:16;100672.00;;;21.30
12854;BMP180;6495;51.808;7.478;2023-07-30T10:43:48;100657.00;;;21.50
12854;BMP180;6495;51.808;7.478;2023-07-30T10:46:18;100653.00;;;21.60
12854;BMP180;6495;51.808;7.478;2023-07-30T10:48:48;100652.00;;;21.70
12854;BMP180;6495;51.808;7.478;2023-07-30T10:51:20;100664.00;;;21.80
12854;BMP180;6495;51.808;7.478;2023-07-30T10:53:51;100670.00;;;21.80
12854;BMP180;6495;51.808;7.478;2023-07-30T10:56:23;100672.00;;;21.70
12854;BMP180;6495;51.808;7.478;2023-07-30T10:58:53;100672.00;;;21.70
12854;BMP180;6495;51.808;7.478;2023-07-30T11:01:25;100668.00;;;21.60
12854;BMP180;6495;51.808;7.478;2023-07-30T11:03:54;100670.00;;;21.60
12854;BMP180;6495;51.808;7.478;2023-07-30T11:06:23;100681.00;;;21.60
12854;BMP180;6495;51.808;7.478;2023-07-30T11:08:53;100679.00;;;21.50
12854;BMP180;6495;51.808;7.478;2023-07-30T11:11:22;100684.00;;;21.40
12854;BMP180;6495;51.808;7.478;2023-07-30T11:13:52;100683.00;;;21.40
12854;BMP180;6495;51.808;7.478;2023-07-30T11:16:20;100693.00;;;21.40
12854;BMP180;6495;51.808;7.478;2023-07-30T11:18:49;100681.00;;;21.30
12854;BMP180;6495;51.808;7.478;2023-07-30T11:21:19;100696.00;;;21.30
12854;BMP180;6495;51.808;7.478;2023-07-30T11:23:47;100691.00;;;21.40
12854;BMP180;6495;51.808;7.478;2023-07-30T11:26:18;100685.00;;;21.40
12854;BMP180;6495;51.808;7.478;2023-07-30T11:28:47;100683.00;;;21.40
12854;BMP180;6495;51.808;7.478;2023-07-30T11:31:18;100671.00;;;21.50
12854;BMP180;6495;51.808;7.478;2023-07-30T11:33:49;100671.00;;;21.60
12854;BMP180;6495;51.808;7.478;2023-07-30T11:36:22;100674.00;;;21.60
12854;BMP180;6495;51.808;7.478;2023-07-30T11:38:51;100681.00;;;21.70
12854;BMP180;6495;51.808;7.478;2023-07-30T11:41:25;100673.00;;;21.80
12854;BMP180;6495;51.808;7.478;2023-07-30T11:43:54;100678.00;;;21.80
12854;BMP180;6495;51.808;7.478;2023-07-30T11:46:22;100673.00;;;21.90
12854;BMP180;6495;51.808;7.478;2023-07-30T11:48:53;100662.00;;;21.90
12854;BMP180;6495;51.808;7.478;2023-07-30T11:51:24;100662.00;;;21.90
12854;BMP180;6495;51.808;7.478;2023-07-30T11:53:55;100677.00;;;21.90
12854;BMP180;6495;51.808;7.478;2023-07-30T11:56:27;100671.00;;;21.90
12854;BMP180;6495;51.808;7.478;2023-07-30T11:58:58;100673.00;;;21.80
12854;BMP180;6495;51.808;7.478;2023-07-30T12:01:30;100687.00;;;21.80
12854;BMP180;6495;51.808;7.478;2023-07-30T12:04:06;100681.00;;;21.70
12854;BMP180;6495;51.808;7.478;2023-07-30T12:06:41;100682.00;;;21.60
12854;BMP180;6495;51.808;7.478;2023-07-30T12:09:13;100687.00;;;21.60
12854;BMP180;6495;51.808;7.478;2023-07-30T12:11:47;100681.00;;;21.60
12854;BMP180;6495;51.808;7.478;2023-07-30T12:14:17;100687.00;;;21.60
12854;BMP180;6495;51.808;7.478;2023-07-30T12:16:46;100683.00;;;21.60
12854;BMP180;6495;51.808;7.478;2023-07-30T12:19:14;100702.00;;;21.60
12854;BMP180;6495;51.808;7.478;2023-07-30T12:21:42;100704.00;;;21.50
12854;BMP180;6495;51.808;7.478;2023-07-30T12:24:11;100713.00;;;21.60
12854;BMP180;6495;51.808;7.478;2023-07-30T12:26:39;100719.00;;;21.60
12854;BMP180;6495;51.808;7.478;2023-07-30T12:29:08;100733.00;;;21.60
12854;BMP180;6495;51.808;7.478;2023-07-30T12:31:37;100768.00;;;21.50
12854;BMP180;6495;51.808;7.478;2023-07-30T12:34:05;100790.00;;;21.30
12854;BMP180;6495;51.808;7.478;2023-07-30T12:36:34;100783.00;;;21.10
12854;BMP180;6495;51.808;7.478;2023-07-30T12:39:02;100774.00;;;20.90
12854;BMP180;6495;51.808;7.478;2023-07-30T12:41:30;100769.00;;;20.90
12854;BMP180;6495;51.808;7.478;2023-07-30T12:43:58;100759.00;;;20.80
12854;BMP180;6495;51.808;7.478;2023-07-30T12:46:28;100757.00;;;20.80
12854;BMP180;6495;51.808;7.478;2023-07-30T12:48:57;100753.00;;;20.80
12854;BMP180;6495;51.808;7.478;2023-07-30T12:51:29;100744.00;;;20.80
12854;BMP180;6495;51.808;7.478;2023-07-30T12:53:57;100752.00;;;20.70
12854;BMP180;6495;51.808;7.478;2023-07-30T12:56:26;100751.00;;;20.60
12854;BMP180;6495;51.808;7.478;2023-07-30T12:58:54;100754.00;;;20.50
12854;BMP180;6495;51.808;7.478;2023-07-30T13:01:22;100740.00;;;20.40
12854;BMP180;6495;51.808;7.478;2023-07-30T13:03:52;100731.00;;;20.40
12854;BMP180;6495;51.808;7.478;2023-07-30T13:06:21;100731.00;;;20.40
12854;BMP180;6495;51.808;7.478;2023-07-30T13:08:50;100736.00;;;20.40
12854;BMP180;6495;51.808;7.478;2023-07-30T13:11:19;100724.00;;;20.50
12854;BMP180;6495;51.808;7.478;2023-07-30T13:13:47;100722.00;;;20.60
12854;BMP180;6495;51.808;7.478;2023-07-30T13:16:15;100729.00;;;20.60
12854;BMP180;6495;51.808;7.478;2023-07-30T13:18:44;100728.00;;;20.70
12854;BMP180;6495;51.808;7.478;2023-07-30T13:21:13;100721.00;;;20.70
12854;BMP180;6495;51.808;7.478;2023-07-30T13:23:41;100728.00;;;20.80
12854;BMP180;6495;51.808;7.478;2023-07-30T13:26:09;100719.00;;;20.80
12854;BMP180;6495;51.808;7.478;2023-07-30T13:28:38;100719.00;;;20.80
12854;BMP180;6495;51.808;7.478;2023-07-30T13:31:06;100720.00;;;20.70
12854;BMP180;6495;51.808;7.478;2023-07-30T13:33:34;100722.00;;;20.80
12854;BMP180;6495;51.808;7.478;2023-07-30T13:36:03;100725.00;;;20.80
12854;BMP180;6495;51.808;7.478;2023-07-30T13:38:33;100727.00;;;20.90
12854;BMP180;6495;51.808;7.478;2023-07-30T13:41:01;100724.00;;;20.90
12854;BMP180;6495;51.808;7.478;2023-07-30T13:43:29;100726.00;;;20.90
12854;BMP180;6495;51.808;7.478;2023-07-30T13:45:58;100728.00;;;20.90
12854;BMP180;6495;51.808;7.478;2023-07-30T13:48:26;100730.00;;;20.90
12854;BMP180;6495;51.808;7.478;2023-07-30T13:50:55;100729.00;;;20.90
12854;BMP180;6495;51.808;7.478;2023-07-30T13:53:23;100730.00;;;20.90
12854;BMP180;6495;51.808;7.478;2023-07-30T13:55:53;100744.00;;;20.90
12854;BMP180;6495;51.808;7.478;2023-07-30T13:58:21;100736.00;;;20.90
12854;BMP180;6495;51.808;7.478;2023-07-30T14:00:54;100724.00;;;20.90
12854;BMP180;6495;51.808;7.478;2023-07-30T14:03:25;100734.00;;;20.90
12854;BMP180;6495;51.808;7.478;2023-07-30T14:06:23;100729.00;;;21.00
12854;BMP180;6495;51.808;7.478;2023-07-30T14:09:05;100734.00;;;20.90
12854;BMP180;6495;51.808;7.478;2023-07-30T14:11:35;100729.00;;;20.90
12854;BMP180;6495;51.808;7.478;2023-07-30T14:14:05;100736.00;;;20.90
12854;BMP180;6495;51.808;7.478;2023-07-30T14:16:33;100732.00;;;20.90
12854;BMP180;6495;51.808;7.478;2023-07-30T14:19:02;100728.00;;;21.00
12854;BMP180;6495;51.808;7.478;2023-07-30T14:21:33;100723.00;;;21.10